sensor_id;sensor_type;location;lat;lon;timestamp;P1;durP1;ratioP1;P2;durP2;ratioP2
73150;SDS011;61354;50.758;6.106;2023-05-10T00:00:22;15.95;;;8.88;;
73150;SDS011;61354;50.758;6.106;2023-05-10T00:02:48;14.07;;;7.95;;
73150;SDS011;61354;50.758;6.106;2023-05-10T00:05:14;16.85;;;9.15;;
73150;SDS011;61354;50.758;6.106;2023-05-10T00:07:40;17.95;;;9.45;;
73150;SDS011;61354;50.758;6.106;2023-05-10T00:10:06;17.17;;;9.00;;
73150;SDS011;61354;50.758;6.106;2023-05-10T00:12:32;17.20;;;8.82;;
73150;SDS011;61354;50.758;6.106;2023-05-10T00:14:57;17.00;;;10.30;;
73150;SDS011;61354;50.758;6.106;2023-05-10T00:17:23;18.80;;;8.85;;
73150;SDS011;61354;50.758;6.106;2023-05-10T00:19:48;14.68;;;8.70;;
73150;SDS011;61354;50.758;6.106;2023-05-10T00:22:14;14.05;;;7.60;;
73150;SDS011;61354;50.758;6.106;2023-05-10T00:24:40;16.27;;;8.88;;
73150;SDS011;61354;50.758;6.106;2023-05-10T00:27:05;18.48;;;9.65;;
73150;SDS011;61354;50.758;6.106;2023-05-10T00:29:31;15.98;;;8.40;;
73150;SDS011;61354;50.758;6.106;2023-05-10T00:31:56;14.85;;;8.30;;
73150;SDS011;61354;50.758;6.106;2023-05-10T00:34:22;14.57;;;8.27;;
73150;SDS011;61354;50.758;6.106;2023-05-10T00:36:48;15.75;;;7.78;;
73150;SDS011;61354;50.758;6.106;2023-05-10T00:39:13;16.30;;;7.75;;
73150;SDS011;61354;50.758;6.106;2023-05-10T00:41:39;13.00;;;7.05;;
73150;SDS011;61354;50.758;6.106;2023-05-10T00:44:04;11.52;;;7.03;;
73150;SDS011;61354;50.758;6.106;2023-05-10T00:46:30;12.20;;;7.13;;
73150;SDS011;61354;50.758;6.106;2023-05-10T00:48:56;12.23;;;6.40;;
73150;SDS011;61354;50.758;6.106;2023-05-10T00:51:22;9.30;;;5.20;;
73150;SDS011;61354;50.758;6.106;2023-05-10T00:53:48;9.57;;;5.38;;
73150;SDS011;61354;50.758;6.106;2023-05-10T00:56:16;9.02;;;5.30;;
73150;SDS011;61354;50.758;6.106;2023-05-10T00:58:42;10.02;;;5.65;;
73150;SDS011;61354;50.758;6.106;2023-05-10T01:01:08;9.35;;;5.68;;
73150;SDS011;61354;50.758;6.106;2023-05-10T01:03:34;11.13;;;5.20;;
73150;SDS011;61354;50.758;6.106;2023-05-10T01:06:01;10.35;;;5.63;;
73150;SDS011;61354;50.758;6.106;2023-05-10T01:08:27;9.00;;;4.88;;
73150;SDS011;61354;50.758;6.106;2023-05-10T01:10:53;8.40;;;4.55;;
73150;SDS011;61354;50.758;6.106;2023-05-10T01:13:26;8.93;;;5.03;;
73150;SDS011;61354;50.758;6.106;2023-05-10T01:15:57;8.60;;;4.32;;
73150;SDS011;61354;50.758;6.106;2023-05-10T01:18:23;8.20;;;4.30;;
73150;SDS011;61354;50.758;6.106;2023-05-10T01:20:53;7.55;;;4.13;;
73150;SDS011;61354;50.758;6.106;2023-05-10T01:23:45;9.70;;;4.75;;
73150;SDS011;61354;50.758;6.106;2023-05-10T01:26:24;7.47;;;4.68;;
73150;SDS011;61354;50.758;6.106;2023-05-10T01:35:38;8.25;;;4.60;;
73150;SDS011;61354;50.758;6.106;2023-05-10T01:38:13;7.15;;;4.38;;
73150;SDS011;61354;50.758;6.106;2023-05-10T01:40:48;7.90;;;4.75;;
73150;SDS011;61354;50.758;6.106;2023-05-10T01:43:26;8.10;;;4.78;;
73150;SDS011;61354;50.758;6.106;2023-05-10T01:46:04;7.97;;;4.70;;
73150;SDS011;61354;50.758;6.106;2023-05-10T01:51:13;8.75;;;4.75;;
73150;SDS011;61354;50.758;6.106;2023-05-10T01:53:42;8.20;;;4.53;;
73150;SDS011;61354;50.758;6.106;2023-05-10T01:56:09;7.88;;;4.70;;
73150;SDS011;61354;50.758;6.106;2023-05-10T01:58:37;8.02;;;4.82;;
73150;SDS011;61354;50.758;6.106;2023-05-10T02:03:32;6.78;;;4.20;;
73150;SDS011;61354;50.758;6.106;2023-05-10T02:06:01;7.07;;;4.32;;
73150;SDS011;61354;50.758;6.106;2023-05-10T02:08:28;5.70;;;3.65;;
73150;SDS011;61354;50.758;6.106;2023-05-10T02:10:55;6.93;;;3.83;;
73150;SDS011;61354;50.758;6.106;2023-05-10T02:13:23;6.72;;;3.97;;
73150;SDS011;61354;50.758;6.106;2023-05-10T02:15:51;6.50;;;4.07;;
73150;SDS011;61354;50.758;6.106;2023-05-10T02:18:18;8.18;;;4.78;;
73150;SDS011;61354;50.758;6.106;2023-05-10T02:20:45;7.55;;;4.43;;
73150;SDS011;61354;50.758;6.106;2023-05-10T02:23:11;7.82;;;4.78;;
73150;SDS011;61354;50.758;6.106;2023-05-10T02:25:38;8.50;;;5.05;;
73150;SDS011;61354;50.758;6.106;2023-05-10T02:28:05;9.02;;;5.43;;
73150;SDS011;61354;50.758;6.106;2023-05-10T02:30:33;7.50;;;4.75;;
73150;SDS011;61354;50.758;6.106;2023-05-10T02:33:00;10.90;;;5.65;;
73150;SDS011;61354;50.758;6.106;2023-05-10T02:35:29;11.60;;;6.03;;
73150;SDS011;61354;50.758;6.106;2023-05-10T02:37:56;11.18;;;6.28;;
73150;SDS011;61354;50.758;6.106;2023-05-10T02:40:23;10.82;;;5.97;;
73150;SDS011;61354;50.758;6.106;2023-05-10T02:42:50;9.63;;;6.72;;
73150;SDS011;61354;50.758;6.106;2023-05-10T02:45:20;13.02;;;7.13;;
73150;SDS011;61354;50.758;6.106;2023-05-10T02:47:48;11.95;;;6.70;;
73150;SDS011;61354;50.758;6.106;2023-05-10T02:50:14;13.23;;;7.13;;
73150;SDS011;61354;50.758;6.106;2023-05-10T02:52:44;13.13;;;7.35;;
73150;SDS011;61354;50.758;6.106;2023-05-10T02:55:13;13.80;;;8.10;;
73150;SDS011;61354;50.758;6.106;2023-05-10T02:57:57;12.02;;;7.05;;
73150;SDS011;61354;50.758;6.106;2023-05-10T03:00:24;15.38;;;7.95;;
73150;SDS011;61354;50.758;6.106;2023-05-10T03:02:51;12.93;;;6.93;;
73150;SDS011;61354;50.758;6.106;2023-05-10T03:05:17;14.73;;;7.75;;
73150;SDS011;61354;50.758;6.106;2023-05-10T03:07:43;15.00;;;7.78;;
73150;SDS011;61354;50.758;6.106;2023-05-10T03:10:09;14.35;;;7.63;;
73150;SDS011;61354;50.758;6.106;2023-05-10T03:12:55;12.68;;;7.18;;
73150;SDS011;61354;50.758;6.106;2023-05-10T03:18:37;15.32;;;7.28;;
73150;SDS011;61354;50.758;6.106;2023-05-10T03:21:25;13.73;;;6.78;;
73150;SDS011;61354;50.758;6.106;2023-05-10T03:24:27;10.48;;;5.63;;
73150;SDS011;61354;50.758;6.106;2023-05-10T03:26:48;14.27;;;7.32;;
73150;SDS011;61354;50.758;6.106;2023-05-10T03:29:17;12.75;;;6.88;;
73150;SDS011;61354;50.758;6.106;2023-05-10T03:31:44;11.88;;;6.05;;
73150;SDS011;61354;50.758;6.106;2023-05-10T03:34:10;12.10;;;6.88;;
73150;SDS011;61354;50.758;6.106;2023-05-10T03:36:36;10.88;;;6.35;;
73150;SDS011;61354;50.758;6.106;2023-05-10T03:39:02;12.68;;;6.85;;
73150;SDS011;61354;50.758;6.106;2023-05-10T03:41:27;11.00;;;6.35;;
73150;SDS011;61354;50.758;6.106;2023-05-10T03:43:54;14.23;;;6.57;;
73150;SDS011;61354;50.758;6.106;2023-05-10T03:46:19;14.07;;;7.82;;
73150;SDS011;61354;50.758;6.106;2023-05-10T03:48:45;10.90;;;6.93;;
73150;SDS011;61354;50.758;6.106;2023-05-10T03:51:10;13.55;;;6.82;;
73150;SDS011;61354;50.758;6.106;2023-05-10T03:53:36;13.98;;;6.63;;
73150;SDS011;61354;50.758;6.106;2023-05-10T03:56:01;13.65;;;6.97;;
73150;SDS011;61354;50.758;6.106;2023-05-10T03:58:27;15.93;;;8.05;;
73150;SDS011;61354;50.758;6.106;2023-05-10T04:00:53;12.00;;;6.75;;
73150;SDS011;61354;50.758;6.106;2023-05-10T04:03:18;11.25;;;5.97;;
73150;SDS011;61354;50.758;6.106;2023-05-10T04:05:45;13.25;;;6.88;;
73150;SDS011;61354;50.758;6.106;2023-05-10T04:08:10;11.57;;;6.32;;
73150;SDS011;61354;50.758;6.106;2023-05-10T04:10:36;13.23;;;6.95;;
73150;SDS011;61354;50.758;6.106;2023-05-10T04:13:01;12.75;;;6.20;;
73150;SDS011;61354;50.758;6.106;2023-05-10T04:15:27;12.05;;;6.57;;
73150;SDS011;61354;50.758;6.106;2023-05-10T04:17:53;12.60;;;6.32;;
73150;SDS011;61354;50.758;6.106;2023-05-10T04:20:18;9.57;;;5.60;;
73150;SDS011;61354;50.758;6.106;2023-05-10T04:22:44;10.43;;;5.63;;
73150;SDS011;61354;50.758;6.106;2023-05-10T04:25:10;13.30;;;5.82;;
73150;SDS011;61354;50.758;6.106;2023-05-10T04:27:35;11.40;;;5.13;;
73150;SDS011;61354;50.758;6.106;2023-05-10T04:30:01;10.15;;;5.43;;
73150;SDS011;61354;50.758;6.106;2023-05-10T04:32:27;10.00;;;5.25;;
73150;SDS011;61354;50.758;6.106;2023-05-10T04:34:53;9.95;;;5.55;;
73150;SDS011;61354;50.758;6.106;2023-05-10T04:37:18;9.98;;;4.72;;
73150;SDS011;61354;50.758;6.106;2023-05-10T04:39:45;9.75;;;5.43;;
73150;SDS011;61354;50.758;6.106;2023-05-10T04:42:10;10.55;;;5.30;;
73150;SDS011;61354;50.758;6.106;2023-05-10T04:44:36;9.90;;;5.47;;
73150;SDS011;61354;50.758;6.106;2023-05-10T04:47:02;12.13;;;6.35;;
73150;SDS011;61354;50.758;6.106;2023-05-10T04:49:28;11.45;;;5.57;;
73150;SDS011;61354;50.758;6.106;2023-05-10T04:51:55;10.40;;;5.32;;
73150;SDS011;61354;50.758;6.106;2023-05-10T04:54:20;11.13;;;5.38;;
73150;SDS011;61354;50.758;6.106;2023-05-10T04:56:46;11.68;;;5.65;;
73150;SDS011;61354;50.758;6.106;2023-05-10T04:59:12;12.27;;;5.10;;
73150;SDS011;61354;50.758;6.106;2023-05-10T05:01:37;10.27;;;5.50;;
73150;SDS011;61354;50.758;6.106;2023-05-10T05:04:03;11.90;;;5.57;;
73150;SDS011;61354;50.758;6.106;2023-05-10T05:06:29;12.63;;;5.38;;
73150;SDS011;61354;50.758;6.106;2023-05-10T05:08:54;11.38;;;5.40;;
73150;SDS011;61354;50.758;6.106;2023-05-10T05:11:20;10.43;;;4.28;;
73150;SDS011;61354;50.758;6.106;2023-05-10T05:13:46;12.95;;;5.13;;
73150;SDS011;61354;50.758;6.106;2023-05-10T05:16:11;11.43;;;4.75;;
73150;SDS011;61354;50.758;6.106;2023-05-10T05:18:37;10.60;;;5.13;;
73150;SDS011;61354;50.758;6.106;2023-05-10T05:21:03;12.63;;;5.70;;
73150;SDS011;61354;50.758;6.106;2023-05-10T05:23:28;11.77;;;5.18;;
73150;SDS011;61354;50.758;6.106;2023-05-10T05:25:54;9.23;;;4.50;;
73150;SDS011;61354;50.758;6.106;2023-05-10T05:28:20;12.02;;;5.05;;
73150;SDS011;61354;50.758;6.106;2023-05-10T05:30:46;11.07;;;4.85;;
73150;SDS011;61354;50.758;6.106;2023-05-10T05:33:15;9.07;;;4.53;;
73150;SDS011;61354;50.758;6.106;2023-05-10T05:35:41;10.55;;;4.80;;
73150;SDS011;61354;50.758;6.106;2023-05-10T05:38:09;10.32;;;4.32;;
73150;SDS011;61354;50.758;6.106;2023-05-10T05:40:35;8.40;;;3.67;;
73150;SDS011;61354;50.758;6.106;2023-05-10T05:43:00;8.02;;;3.80;;
73150;SDS011;61354;50.758;6.106;2023-05-10T05:45:26;9.25;;;3.72;;
73150;SDS011;61354;50.758;6.106;2023-05-10T05:47:51;6.95;;;3.45;;
73150;SDS011;61354;50.758;6.106;2023-05-10T05:50:17;8.75;;;3.80;;
73150;SDS011;61354;50.758;6.106;2023-05-10T05:52:43;6.28;;;3.53;;
73150;SDS011;61354;50.758;6.106;2023-05-10T05:55:08;6.90;;;3.60;;
73150;SDS011;61354;50.758;6.106;2023-05-10T05:57:34;7.25;;;3.35;;
73150;SDS011;61354;50.758;6.106;2023-05-10T05:59:59;6.80;;;2.97;;
73150;SDS011;61354;50.758;6.106;2023-05-10T06:02:25;5.88;;;2.60;;
73150;SDS011;61354;50.758;6.106;2023-05-10T06:04:50;5.20;;;2.47;;
73150;SDS011;61354;50.758;6.106;2023-05-10T06:07:16;4.43;;;2.10;;
73150;SDS011;61354;50.758;6.106;2023-05-10T06:09:42;5.65;;;2.35;;
73150;SDS011;61354;50.758;6.106;2023-05-10T06:12:07;4.28;;;1.98;;
73150;SDS011;61354;50.758;6.106;2023-05-10T06:14:33;4.68;;;2.25;;
73150;SDS011;61354;50.758;6.106;2023-05-10T06:16:58;4.00;;;1.95;;
73150;SDS011;61354;50.758;6.106;2023-05-10T06:19:25;4.78;;;2.13;;
73150;SDS011;61354;50.758;6.106;2023-05-10T06:21:51;4.65;;;2.00;;
73150;SDS011;61354;50.758;6.106;2023-05-10T06:24:17;4.45;;;1.95;;
73150;SDS011;61354;50.758;6.106;2023-05-10T06:26:42;2.75;;;1.33;;
73150;SDS011;61354;50.758;6.106;2023-05-10T06:29:08;2.83;;;1.35;;
73150;SDS011;61354;50.758;6.106;2023-05-10T06:31:34;3.63;;;1.70;;
73150;SDS011;61354;50.758;6.106;2023-05-10T06:33:59;3.35;;;1.50;;
73150;SDS011;61354;50.758;6.106;2023-05-10T06:36:25;2.40;;;1.10;;
73150;SDS011;61354;50.758;6.106;2023-05-10T06:38:51;2.03;;;1.10;;
73150;SDS011;61354;50.758;6.106;2023-05-10T06:41:17;2.35;;;0.93;;
73150;SDS011;61354;50.758;6.106;2023-05-10T06:43:42;1.50;;;0.90;;
73150;SDS011;61354;50.758;6.106;2023-05-10T06:46:08;1.05;;;0.70;;
73150;SDS011;61354;50.758;6.106;2023-05-10T06:48:34;1.17;;;0.70;;
73150;SDS011;61354;50.758;6.106;2023-05-10T06:51:00;1.70;;;0.68;;
73150;SDS011;61354;50.758;6.106;2023-05-10T06:53:25;1.10;;;0.68;;
73150;SDS011;61354;50.758;6.106;2023-05-10T06:55:51;0.80;;;0.70;;
73150;SDS011;61354;50.758;6.106;2023-05-10T06:58:16;1.40;;;0.40;;
73150;SDS011;61354;50.758;6.106;2023-05-10T07:00:42;1.52;;;0.50;;
73150;SDS011;61354;50.758;6.106;2023-05-10T07:03:09;1.45;;;0.60;;
73150;SDS011;61354;50.758;6.106;2023-05-10T07:05:35;0.85;;;0.43;;
73150;SDS011;61354;50.758;6.106;2023-05-10T07:08:01;0.70;;;0.40;;
73150;SDS011;61354;50.758;6.106;2023-05-10T07:10:27;0.73;;;0.60;;
73150;SDS011;61354;50.758;6.106;2023-05-10T07:12:52;1.77;;;0.55;;
73150;SDS011;61354;50.758;6.106;2023-05-10T07:15:18;1.02;;;0.43;;
73150;SDS011;61354;50.758;6.106;2023-05-10T07:17:43;0.57;;;0.35;;
73150;SDS011;61354;50.758;6.106;2023-05-10T07:20:09;0.32;;;0.32;;
73150;SDS011;61354;50.758;6.106;2023-05-10T07:22:35;0.73;;;0.50;;
73150;SDS011;61354;50.758;6.106;2023-05-10T07:25:01;0.77;;;0.60;;
73150;SDS011;61354;50.758;6.106;2023-05-10T07:27:27;0.73;;;0.40;;
73150;SDS011;61354;50.758;6.106;2023-05-10T07:29:53;1.95;;;0.73;;
73150;SDS011;61354;50.758;6.106;2023-05-10T07:32:20;1.42;;;0.50;;
73150;SDS011;61354;50.758;6.106;2023-05-10T07:34:45;1.55;;;1.02;;
73150;SDS011;61354;50.758;6.106;2023-05-10T07:37:11;2.60;;;0.80;;
73150;SDS011;61354;50.758;6.106;2023-05-10T07:39:36;2.00;;;0.98;;
73150;SDS011;61354;50.758;6.106;2023-05-10T07:42:02;2.15;;;1.15;;
73150;SDS011;61354;50.758;6.106;2023-05-10T07:44:28;1.75;;;0.88;;
73150;SDS011;61354;50.758;6.106;2023-05-10T07:46:53;1.67;;;1.00;;
73150;SDS011;61354;50.758;6.106;2023-05-10T07:49:19;2.38;;;1.23;;
73150;SDS011;61354;50.758;6.106;2023-05-10T07:51:45;3.63;;;1.60;;
73150;SDS011;61354;50.758;6.106;2023-05-10T07:54:10;3.38;;;1.38;;
73150;SDS011;61354;50.758;6.106;2023-05-10T07:56:36;4.07;;;1.83;;
73150;SDS011;61354;50.758;6.106;2023-05-10T07:59:02;3.28;;;1.73;;
73150;SDS011;61354;50.758;6.106;2023-05-10T08:01:32;4.15;;;2.22;;
73150;SDS011;61354;50.758;6.106;2023-05-10T08:03:59;3.97;;;1.90;;
73150;SDS011;61354;50.758;6.106;2023-05-10T08:06:25;4.20;;;2.00;;
73150;SDS011;61354;50.758;6.106;2023-05-10T08:08:55;4.07;;;2.10;;
73150;SDS011;61354;50.758;6.106;2023-05-10T08:11:21;3.83;;;1.80;;
73150;SDS011;61354;50.758;6.106;2023-05-10T08:13:48;2.30;;;1.02;;
73150;SDS011;61354;50.758;6.106;2023-05-10T08:16:15;2.13;;;1.23;;
73150;SDS011;61354;50.758;6.106;2023-05-10T08:18:42;1.83;;;0.93;;
73150;SDS011;61354;50.758;6.106;2023-05-10T08:21:09;1.77;;;0.90;;
73150;SDS011;61354;50.758;6.106;2023-05-10T08:23:36;0.68;;;0.60;;
73150;SDS011;61354;50.758;6.106;2023-05-10T08:26:02;1.42;;;0.90;;
73150;SDS011;61354;50.758;6.106;2023-05-10T08:28:28;1.95;;;0.90;;
73150;SDS011;61354;50.758;6.106;2023-05-10T08:30:53;3.03;;;1.10;;
73150;SDS011;61354;50.758;6.106;2023-05-10T08:33:19;2.30;;;1.35;;
73150;SDS011;61354;50.758;6.106;2023-05-10T08:35:45;3.15;;;1.10;;
73150;SDS011;61354;50.758;6.106;2023-05-10T08:38:10;2.08;;;1.00;;
73150;SDS011;61354;50.758;6.106;2023-05-10T08:40:37;3.50;;;0.93;;
73150;SDS011;61354;50.758;6.106;2023-05-10T08:43:05;1.83;;;1.05;;
73150;SDS011;61354;50.758;6.106;2023-05-10T08:45:37;2.75;;;1.10;;
73150;SDS011;61354;50.758;6.106;2023-05-10T08:48:07;2.35;;;1.23;;
73150;SDS011;61354;50.758;6.106;2023-05-10T08:50:37;2.17;;;1.10;;
73150;SDS011;61354;50.758;6.106;2023-05-10T08:53:09;3.28;;;1.33;;
73150;SDS011;61354;50.758;6.106;2023-05-10T08:55:36;2.75;;;1.20;;
73150;SDS011;61354;50.758;6.106;2023-05-10T08:58:04;2.25;;;1.20;;
73150;SDS011;61354;50.758;6.106;2023-05-10T09:00:30;1.95;;;1.05;;
73150;SDS011;61354;50.758;6.106;2023-05-10T09:02:56;2.20;;;1.30;;
73150;SDS011;61354;50.758;6.106;2023-05-10T09:05:23;1.45;;;1.10;;
73150;SDS011;61354;50.758;6.106;2023-05-10T09:07:49;2.40;;;1.20;;
73150;SDS011;61354;50.758;6.106;2023-05-10T09:10:14;1.88;;;1.23;;
73150;SDS011;61354;50.758;6.106;2023-05-10T09:12:41;1.67;;;1.13;;
73150;SDS011;61354;50.758;6.106;2023-05-10T09:15:06;2.35;;;1.10;;
73150;SDS011;61354;50.758;6.106;2023-05-10T09:17:34;1.92;;;1.20;;
73150;SDS011;61354;50.758;6.106;2023-05-10T09:20:01;3.22;;;1.60;;
73150;SDS011;61354;50.758;6.106;2023-05-10T09:22:30;2.45;;;1.23;;
73150;SDS011;61354;50.758;6.106;2023-05-10T09:25:15;1.70;;;0.98;;
73150;SDS011;61354;50.758;6.106;2023-05-10T09:27:44;1.63;;;1.13;;
73150;SDS011;61354;50.758;6.106;2023-05-10T09:30:15;2.28;;;1.13;;
73150;SDS011;61354;50.758;6.106;2023-05-10T09:32:51;2.03;;;1.20;;
73150;SDS011;61354;50.758;6.106;2023-05-10T09:35:19;1.55;;;0.80;;
73150;SDS011;61354;50.758;6.106;2023-05-10T09:37:47;1.98;;;0.80;;
73150;SDS011;61354;50.758;6.106;2023-05-10T09:40:18;1.48;;;0.93;;
73150;SDS011;61354;50.758;6.106;2023-05-10T09:42:55;1.38;;;0.80;;
73150;SDS011;61354;50.758;6.106;2023-05-10T09:45:26;1.80;;;1.10;;
73150;SDS011;61354;50.758;6.106;2023-05-10T09:47:53;2.78;;;1.05;;
73150;SDS011;61354;50.758;6.106;2023-05-10T09:50:19;2.08;;;1.00;;
73150;SDS011;61354;50.758;6.106;2023-05-10T09:55:19;3.80;;;1.33;;
73150;SDS011;61354;50.758;6.106;2023-05-10T09:57:47;2.65;;;1.15;;
73150;SDS011;61354;50.758;6.106;2023-05-10T10:00:17;2.28;;;1.23;;
73150;SDS011;61354;50.758;6.106;2023-05-10T10:02:48;2.90;;;1.60;;
73150;SDS011;61354;50.758;6.106;2023-05-10T10:05:19;2.58;;;1.40;;
73150;SDS011;61354;50.758;6.106;2023-05-10T10:07:45;2.40;;;1.42;;
73150;SDS011;61354;50.758;6.106;2023-05-10T10:10:11;2.72;;;1.70;;
73150;SDS011;61354;50.758;6.106;2023-05-10T10:12:38;3.30;;;1.75;;
73150;SDS011;61354;50.758;6.106;2023-05-10T10:15:05;2.38;;;1.60;;
73150;SDS011;61354;50.758;6.106;2023-05-10T10:17:33;2.60;;;1.65;;
73150;SDS011;61354;50.758;6.106;2023-05-10T10:20:02;2.58;;;1.60;;
73150;SDS011;61354;50.758;6.106;2023-05-10T10:22:28;2.88;;;1.52;;
73150;SDS011;61354;50.758;6.106;2023-05-10T10:24:53;2.70;;;1.70;;
73150;SDS011;61354;50.758;6.106;2023-05-10T10:32:59;2.63;;;1.50;;
73150;SDS011;61354;50.758;6.106;2023-05-10T10:35:49;2.97;;;1.63;;
73150;SDS011;61354;50.758;6.106;2023-05-10T10:38:17;2.85;;;1.60;;
73150;SDS011;61354;50.758;6.106;2023-05-10T10:40:43;2.35;;;1.52;;
73150;SDS011;61354;50.758;6.106;2023-05-10T10:43:24;2.20;;;1.33;;
73150;SDS011;61354;50.758;6.106;2023-05-10T10:48:41;3.33;;;1.70;;
73150;SDS011;61354;50.758;6.106;2023-05-10T10:51:12;2.80;;;1.67;;
73150;SDS011;61354;50.758;6.106;2023-05-10T10:53:39;2.55;;;1.48;;
73150;SDS011;61354;50.758;6.106;2023-05-10T10:56:09;2.50;;;1.85;;
73150;SDS011;61354;50.758;6.106;2023-05-10T10:58:37;2.67;;;1.48;;
73150;SDS011;61354;50.758;6.106;2023-05-10T11:03:36;2.80;;;1.52;;
73150;SDS011;61354;50.758;6.106;2023-05-10T11:06:02;3.42;;;1.52;;
73150;SDS011;61354;50.758;6.106;2023-05-10T11:08:28;3.15;;;1.48;;
73150;SDS011;61354;50.758;6.106;2023-05-10T11:13:42;2.70;;;1.50;;
73150;SDS011;61354;50.758;6.106;2023-05-10T11:16:13;2.63;;;1.63;;
73150;SDS011;61354;50.758;6.106;2023-05-10T11:18:39;3.30;;;1.80;;
73150;SDS011;61354;50.758;6.106;2023-05-10T11:21:06;3.30;;;1.60;;
73150;SDS011;61354;50.758;6.106;2023-05-10T11:26:08;3.00;;;2.10;;
73150;SDS011;61354;50.758;6.106;2023-05-10T11:28:40;3.03;;;1.83;;
73150;SDS011;61354;50.758;6.106;2023-05-10T11:31:13;3.38;;;2.00;;
73150;SDS011;61354;50.758;6.106;2023-05-10T11:33:44;3.67;;;2.10;;
73150;SDS011;61354;50.758;6.106;2023-05-10T11:36:16;3.53;;;2.08;;
73150;SDS011;61354;50.758;6.106;2023-05-10T11:38:42;3.25;;;2.10;;
73150;SDS011;61354;50.758;6.106;2023-05-10T11:41:11;3.28;;;2.22;;
73150;SDS011;61354;50.758;6.106;2023-05-10T11:43:40;4.05;;;2.28;;
73150;SDS011;61354;50.758;6.106;2023-05-10T11:46:07;4.57;;;2.15;;
73150;SDS011;61354;50.758;6.106;2023-05-10T11:48:34;3.33;;;2.38;;
73150;SDS011;61354;50.758;6.106;2023-05-10T11:51:00;3.42;;;2.10;;
73150;SDS011;61354;50.758;6.106;2023-05-10T11:53:29;4.38;;;1.92;;
73150;SDS011;61354;50.758;6.106;2023-05-10T11:56:02;3.20;;;1.88;;
73150;SDS011;61354;50.758;6.106;2023-05-10T11:58:29;5.50;;;2.40;;
73150;SDS011;61354;50.758;6.106;2023-05-10T12:00:54;3.67;;;2.45;;
73150;SDS011;61354;50.758;6.106;2023-05-10T12:03:20;3.72;;;2.35;;
73150;SDS011;61354;50.758;6.106;2023-05-10T12:05:45;4.00;;;2.67;;
73150;SDS011;61354;50.758;6.106;2023-05-10T12:08:12;3.95;;;2.40;;
73150;SDS011;61354;50.758;6.106;2023-05-10T12:10:38;4.55;;;2.30;;
73150;SDS011;61354;50.758;6.106;2023-05-10T12:13:04;3.75;;;2.20;;
73150;SDS011;61354;50.758;6.106;2023-05-10T12:15:29;4.75;;;2.60;;
73150;SDS011;61354;50.758;6.106;2023-05-10T12:17:55;4.95;;;2.67;;
73150;SDS011;61354;50.758;6.106;2023-05-10T12:20:26;5.22;;;2.70;;
73150;SDS011;61354;50.758;6.106;2023-05-10T12:22:53;4.80;;;2.47;;
73150;SDS011;61354;50.758;6.106;2023-05-10T12:25:24;4.70;;;2.33;;
73150;SDS011;61354;50.758;6.106;2023-05-10T12:27:55;3.92;;;2.75;;
73150;SDS011;61354;50.758;6.106;2023-05-10T12:30:22;3.95;;;2.40;;
73150;SDS011;61354;50.758;6.106;2023-05-10T12:32:48;4.60;;;2.50;;
73150;SDS011;61354;50.758;6.106;2023-05-10T12:35:14;5.93;;;3.05;;
73150;SDS011;61354;50.758;6.106;2023-05-10T12:37:41;4.38;;;2.33;;
73150;SDS011;61354;50.758;6.106;2023-05-10T12:40:08;4.72;;;2.67;;
73150;SDS011;61354;50.758;6.106;2023-05-10T12:45:03;4.45;;;2.90;;
73150;SDS011;61354;50.758;6.106;2023-05-10T12:47:29;4.25;;;2.75;;
73150;SDS011;61354;50.758;6.106;2023-05-10T12:49:55;4.85;;;2.63;;
73150;SDS011;61354;50.758;6.106;2023-05-10T12:52:21;4.43;;;2.60;;
73150;SDS011;61354;50.758;6.106;2023-05-10T12:54:46;5.85;;;2.85;;
73150;SDS011;61354;50.758;6.106;2023-05-10T12:57:12;6.38;;;3.42;;
73150;SDS011;61354;50.758;6.106;2023-05-10T12:59:38;6.22;;;3.17;;
73150;SDS011;61354;50.758;6.106;2023-05-10T13:02:04;7.80;;;3.42;;
73150;SDS011;61354;50.758;6.106;2023-05-10T13:04:29;6.65;;;3.28;;
73150;SDS011;61354;50.758;6.106;2023-05-10T13:06:55;6.30;;;3.13;;
73150;SDS011;61354;50.758;6.106;2023-05-10T13:09:25;4.93;;;3.20;;
73150;SDS011;61354;50.758;6.106;2023-05-10T13:11:52;7.88;;;4.32;;
73150;SDS011;61354;50.758;6.106;2023-05-10T13:14:19;6.18;;;3.50;;
73150;SDS011;61354;50.758;6.106;2023-05-10T13:16:45;6.40;;;3.40;;
73150;SDS011;61354;50.758;6.106;2023-05-10T13:19:12;5.60;;;2.83;;
73150;SDS011;61354;50.758;6.106;2023-05-10T13:21:38;5.20;;;3.03;;
73150;SDS011;61354;50.758;6.106;2023-05-10T13:24:06;5.80;;;3.08;;
73150;SDS011;61354;50.758;6.106;2023-05-10T13:26:32;5.20;;;2.88;;
73150;SDS011;61354;50.758;6.106;2023-05-10T13:28:58;5.75;;;3.65;;
73150;SDS011;61354;50.758;6.106;2023-05-10T13:31:23;6.60;;;3.15;;
73150;SDS011;61354;50.758;6.106;2023-05-10T13:33:54;5.70;;;3.05;;
73150;SDS011;61354;50.758;6.106;2023-05-10T13:36:20;5.70;;;3.45;;
73150;SDS011;61354;50.758;6.106;2023-05-10T13:38:46;5.40;;;2.97;;
73150;SDS011;61354;50.758;6.106;2023-05-10T13:41:12;4.53;;;2.40;;
73150;SDS011;61354;50.758;6.106;2023-05-10T13:43:37;3.95;;;2.30;;
73150;SDS011;61354;50.758;6.106;2023-05-10T13:46:03;4.03;;;2.15;;
73150;SDS011;61354;50.758;6.106;2023-05-10T13:48:29;4.40;;;2.20;;
73150;SDS011;61354;50.758;6.106;2023-05-10T13:50:58;3.83;;;1.92;;
73150;SDS011;61354;50.758;6.106;2023-05-10T13:53:26;4.70;;;2.00;;
73150;SDS011;61354;50.758;6.106;2023-05-10T13:55:52;4.72;;;2.10;;
73150;SDS011;61354;50.758;6.106;2023-05-10T13:58:17;4.35;;;2.10;;
73150;SDS011;61354;50.758;6.106;2023-05-10T14:00:43;4.40;;;2.53;;
73150;SDS011;61354;50.758;6.106;2023-05-10T14:03:08;4.43;;;2.45;;
73150;SDS011;61354;50.758;6.106;2023-05-10T14:05:36;4.05;;;2.10;;
73150;SDS011;61354;50.758;6.106;2023-05-10T14:08:01;4.35;;;2.13;;
73150;SDS011;61354;50.758;6.106;2023-05-10T14:10:27;4.13;;;2.22;;
73150;SDS011;61354;50.758;6.106;2023-05-10T14:12:53;4.53;;;2.30;;
73150;SDS011;61354;50.758;6.106;2023-05-10T14:15:19;3.53;;;2.20;;
73150;SDS011;61354;50.758;6.106;2023-05-10T14:17:44;4.32;;;2.08;;
73150;SDS011;61354;50.758;6.106;2023-05-10T14:20:10;5.63;;;2.72;;
73150;SDS011;61354;50.758;6.106;2023-05-10T14:22:36;4.38;;;2.40;;
73150;SDS011;61354;50.758;6.106;2023-05-10T14:25:02;4.53;;;2.78;;
73150;SDS011;61354;50.758;6.106;2023-05-10T14:27:27;4.20;;;2.42;;
73150;SDS011;61354;50.758;6.106;2023-05-10T14:29:53;5.53;;;2.80;;
73150;SDS011;61354;50.758;6.106;2023-05-10T14:32:19;5.03;;;2.75;;
73150;SDS011;61354;50.758;6.106;2023-05-10T14:34:44;5.05;;;2.50;;
73150;SDS011;61354;50.758;6.106;2023-05-10T14:37:10;4.95;;;2.90;;
73150;SDS011;61354;50.758;6.106;2023-05-10T14:39:36;4.53;;;2.42;;
73150;SDS011;61354;50.758;6.106;2023-05-10T14:42:03;4.55;;;2.75;;
73150;SDS011;61354;50.758;6.106;2023-05-10T14:44:29;5.88;;;3.05;;
73150;SDS011;61354;50.758;6.106;2023-05-10T14:46:54;5.57;;;2.85;;
73150;SDS011;61354;50.758;6.106;2023-05-10T14:49:21;5.28;;;3.00;;
73150;SDS011;61354;50.758;6.106;2023-05-10T14:51:49;5.65;;;2.97;;
73150;SDS011;61354;50.758;6.106;2023-05-10T14:54:15;5.03;;;2.90;;
73150;SDS011;61354;50.758;6.106;2023-05-10T14:56:40;4.75;;;2.80;;
73150;SDS011;61354;50.758;6.106;2023-05-10T14:59:07;5.40;;;2.65;;
73150;SDS011;61354;50.758;6.106;2023-05-10T15:01:33;5.22;;;2.95;;
73150;SDS011;61354;50.758;6.106;2023-05-10T15:04:02;5.97;;;2.95;;
73150;SDS011;61354;50.758;6.106;2023-05-10T15:06:32;5.35;;;3.13;;
73150;SDS011;61354;50.758;6.106;2023-05-10T15:08:58;5.15;;;2.75;;
73150;SDS011;61354;50.758;6.106;2023-05-10T15:11:24;6.10;;;2.78;;
73150;SDS011;61354;50.758;6.106;2023-05-10T15:13:50;5.43;;;2.78;;
73150;SDS011;61354;50.758;6.106;2023-05-10T15:16:16;5.38;;;2.63;;
73150;SDS011;61354;50.758;6.106;2023-05-10T15:18:41;4.20;;;2.05;;